Holland Point, Maryland
Current Conditions -  °F | °C
As of 7:54 AM on Monday 22 Dec 2014 (Local Time) from KNAK Reporting Station
Overcast Overcast  
Wind Chill: 30°   Ceiling: 5000
Heat Index: 34°   Visibility: 8mi
Dew Point: 27°   Wind: 5mph
Humidity: 75%   Direction: 30°NNE
Pressure: 30.3"   Gusts: NA
Location:  38.7189°N, 76.5397°W
Report Text: KNAK 221254Z AUTO 03004KT 8SM OVC050 01/M03 A3030 RMK AO2 SLP262 T00111028 $
Loading
Personal Weather Stations






























Interactive Weather Map New forecast layout! Learn more

10-Day Weather Forecast

Advertisements
Track Severe Weather on mobile